VEAT

Details ICAO VEAT (IXA)
Name AGARTALA
Region India
Timezone Asia/Kolkata (UTC+5.5)
Plans Departing 3
Arriving 8
Stats Elevation 46 ft / 14 m (AMSL)
Location 23.886978° 91.240448°
Runways 1
Magnetic Variation 0.274° W
Sunrise 2017-12-14 00:30:45 UTC / 2017-12-14 06:00:45 Local
Sunset 2017-12-14 11:11:15 UTC / 2017-12-14 16:41:15 Local
Advertisement - Login to hide

Runways

ID Width Length Bearing (true) Bearing (mag) Surface Threshold Offset Overrun Length
18 148 ft / 45 m 7,522 ft / 2,293 m 184.12° 184.39° Asphalt 440 ft / 134 m 200 ft / 61 m
36 148 ft / 45 m 7,522 ft / 2,293 m 4.12° 4.39° Asphalt 0 ft / 0 m 200 ft / 61 m

Map

Weather


0- 5 10 15 20 25 30 35+ Temperature / ° C

Clouds and Precipitation
Forecast for 2017-12-14 18:00 UTC. Updated 31 minutes ago

Ground ~20,000 ft ~40,000 ft Winds

METAR

VEAT 141530Z 12002KT 2500 BR NSC 18/17 Q1015 NOSIG

TAF

Not found

Frequencies

Tower 122.70 MHz TWR
Tower 123.50 MHz TWR
Warning: Do not use this data for real-world aviation or navigation. No guarantee of current accuracy is given.